createdAt,value
2017-06-13T00:00:21.026Z,0
2017-06-13T00:01:15.037Z,0
2017-06-13T00:02:15.136Z,0
2017-06-13T00:03:09.585Z,0
2017-06-13T00:04:09.189Z,0
2017-06-13T00:04:57.190Z,0
2017-06-13T00:05:45.240Z,0
2017-06-13T00:06:40.337Z,0
2017-06-13T00:07:40.322Z,0
2017-06-13T00:08:35.324Z,0
2017-06-13T00:09:29.433Z,0
2017-06-13T00:10:23.440Z,0
2017-06-13T00:11:17.471Z,0
2017-06-13T00:12:06.701Z,0
2017-06-13T00:13:00.537Z,0
2017-06-13T00:13:55.639Z,0
2017-06-13T00:14:55.771Z,0
2017-06-13T00:15:43.709Z,0
2017-06-13T00:16:32.730Z,0
2017-06-13T00:17:32.760Z,0
2017-06-13T00:18:38.830Z,0
2017-06-13T00:19:33.805Z,0
2017-06-13T00:20:27.852Z,0
2017-06-13T00:21:22.942Z,0
2017-06-13T00:22:16.943Z,0
2017-06-13T00:23:18.060Z,0
2017-06-13T00:24:12.991Z,0
2017-06-13T00:25:02.069Z,0
2017-06-13T00:25:57.114Z,0
2017-06-13T00:26:51.136Z,0
2017-06-13T00:27:51.187Z,0
2017-06-13T00:28:51.635Z,0
2017-06-13T00:29:51.266Z,0
2017-06-13T00:30:40.304Z,0
2017-06-13T00:31:40.338Z,0
2017-06-13T00:32:35.380Z,0
2017-06-13T00:33:31.059Z,0
2017-06-13T00:34:19.947Z,0
2017-06-13T00:35:14.615Z,0
2017-06-13T00:36:09.549Z,0
2017-06-13T00:37:03.501Z,0
2017-06-13T00:37:58.643Z,0
2017-06-13T00:38:47.642Z,0
2017-06-13T00:39:35.664Z,0
2017-06-13T00:40:29.711Z,0
2017-06-13T00:41:24.749Z,0
2017-06-13T00:42:13.833Z,0
2017-06-13T00:43:08.966Z,0
2017-06-13T00:44:02.904Z,0
2017-06-13T00:44:56.971Z,0
2017-06-13T00:45:50.946Z,0
2017-06-13T00:46:39.012Z,0
2017-06-13T00:47:33.061Z,0
2017-06-13T00:48:27.106Z,0
2017-06-13T00:49:22.121Z,0
2017-06-13T00:50:17.165Z,0
2017-06-13T00:51:06.322Z,0
2017-06-13T00:52:06.207Z,0
2017-06-13T00:53:01.738Z,0
2017-06-13T00:53:55.343Z,0
2017-06-13T00:54:55.861Z,0
2017-06-13T00:55:49.419Z,0
2017-06-13T00:56:37.863Z,0
2017-06-13T00:57:32.889Z,0
2017-06-13T00:58:32.884Z,0
2017-06-13T00:59:26.520Z,0
2017-06-13T01:00:28.057Z,0
2017-06-13T01:01:28.630Z,0
2017-06-13T01:02:28.656Z,0
2017-06-13T01:03:29.184Z,0
2017-06-13T01:04:23.741Z,0
2017-06-13T01:05:12.749Z,0
2017-06-13T01:06:07.844Z,0
2017-06-13T01:07:07.825Z,0
2017-06-13T01:08:03.391Z,0
2017-06-13T01:08:57.915Z,0
2017-06-13T01:09:57.935Z,0
2017-06-13T01:10:52.007Z,0
2017-06-13T01:11:46.011Z,0
2017-06-13T01:12:40.081Z,0
2017-06-13T01:13:35.097Z,0
2017-06-13T01:14:29.162Z,0
2017-06-13T01:15:23.198Z,0
2017-06-13T01:16:18.245Z,0
2017-06-13T01:17:07.262Z,0
2017-06-13T01:17:56.344Z,0
2017-06-13T01:18:56.888Z,0
2017-06-13T01:19:51.498Z,0
2017-06-13T01:20:52.447Z,0
2017-06-13T01:21:47.471Z,0
2017-06-13T01:22:47.894Z,0
2017-06-13T01:23:41.524Z,0
2017-06-13T01:24:41.670Z,0
2017-06-13T01:25:30.607Z,0
2017-06-13T01:26:30.661Z,0
2017-06-13T01:27:24.691Z,0
2017-06-13T01:28:24.970Z,0
2017-06-13T01:29:19.754Z,0
2017-06-13T01:30:14.983Z,0
2017-06-13T01:31:08.839Z,0
2017-06-13T01:32:03.814Z,0
2017-06-13T01:32:53.342Z,0
2017-06-13T01:33:52.947Z,0
2017-06-13T01:34:41.013Z,0
2017-06-13T01:35:42.027Z,0
2017-06-13T01:36:43.031Z,0
2017-06-13T01:37:31.124Z,0
2017-06-13T01:38:31.710Z,0
2017-06-13T01:39:20.191Z,0
2017-06-13T01:40:14.248Z,0
2017-06-13T01:41:09.363Z,0
2017-06-13T01:42:03.328Z,0
2017-06-13T01:43:04.319Z,0
2017-06-13T01:44:04.485Z,0
2017-06-13T01:44:53.449Z,0
2017-06-13T01:45:47.476Z,0
2017-06-13T01:46:36.851Z,0
2017-06-13T01:47:30.520Z,0
2017-06-13T01:48:31.046Z,0
2017-06-13T01:49:19.605Z,0
2017-06-13T01:50:19.622Z,0
2017-06-13T01:51:07.670Z,0
2017-06-13T01:52:02.754Z,0
2017-06-13T01:52:56.757Z,0
2017-06-13T01:53:50.801Z,0
2017-06-13T01:54:50.859Z,0
2017-06-13T01:55:56.831Z,0
2017-06-13T01:56:50.890Z,0
2017-06-13T01:57:45.680Z,0
2017-06-13T01:58:44.945Z,0
2017-06-13T01:59:39.264Z,0
2017-06-13T02:00:39.293Z,0
2017-06-13T02:01:28.091Z,0
2017-06-13T02:02:23.106Z,0
2017-06-13T02:03:11.615Z,0
2017-06-13T02:04:06.281Z,0
2017-06-13T02:04:55.200Z,0
2017-06-13T02:05:43.315Z,0
2017-06-13T02:06:32.325Z,0
2017-06-13T02:07:20.425Z,0
2017-06-13T02:08:14.780Z,0
2017-06-13T02:09:08.587Z,0
2017-06-13T02:09:56.570Z,0
2017-06-13T02:10:51.565Z,0
2017-06-13T02:11:40.543Z,0
2017-06-13T02:12:34.608Z,0
2017-06-13T02:13:29.702Z,0
2017-06-13T02:14:29.742Z,0
2017-06-13T02:15:29.700Z,0
2017-06-13T02:16:24.753Z,0
2017-06-13T02:17:18.857Z,0
2017-06-13T02:18:19.062Z,0
2017-06-13T02:19:13.916Z,0
2017-06-13T02:20:08.920Z,0
2017-06-13T02:21:14.929Z,0
2017-06-13T02:22:09.051Z,0
2017-06-13T02:23:04.043Z,0
2017-06-13T02:23:59.085Z,0
2017-06-13T02:24:53.156Z,4
2017-06-13T02:25:42.162Z,4
2017-06-13T02:26:37.222Z,0
2017-06-13T02:27:37.245Z,0
2017-06-13T02:28:32.880Z,4
2017-06-13T02:29:26.407Z,4
2017-06-13T02:30:15.432Z,4
2017-06-13T02:31:04.414Z,4
2017-06-13T02:32:05.475Z,4
2017-06-13T02:33:05.751Z,8
2017-06-13T02:34:05.514Z,4
2017-06-13T02:34:54.079Z,8
2017-06-13T02:35:41.679Z,8
2017-06-13T02:36:30.638Z,8
2017-06-13T02:37:19.683Z,8
2017-06-13T02:38:08.748Z,12
2017-06-13T02:39:02.755Z,12
2017-06-13T02:39:57.811Z,12
2017-06-13T02:40:47.125Z,12
2017-06-13T02:41:34.847Z,16
2017-06-13T02:42:24.068Z,16
2017-06-13T02:43:12.245Z,20
2017-06-13T02:44:00.059Z,20
2017-06-13T02:44:48.417Z,24
2017-06-13T02:45:37.124Z,24
2017-06-13T02:46:37.455Z,24
2017-06-13T02:47:37.234Z,28
2017-06-13T02:48:26.241Z,32
2017-06-13T02:49:14.259Z,32
2017-06-13T02:50:02.318Z,36
2017-06-13T02:50:57.436Z,40
2017-06-13T02:51:45.593Z,40
2017-06-13T02:52:34.452Z,44
2017-06-13T02:53:29.488Z,48
2017-06-13T02:54:30.718Z,52
2017-06-13T02:55:24.536Z,64
2017-06-13T02:56:24.860Z,72
2017-06-13T02:57:14.151Z,84
2017-06-13T02:58:03.046Z,92
2017-06-13T02:59:02.692Z,96
2017-06-13T03:00:03.114Z,104
2017-06-13T03:00:58.100Z,116
2017-06-13T03:01:52.197Z,132
2017-06-13T03:02:40.036Z,144
2017-06-13T03:03:28.427Z,156
2017-06-13T03:04:21.957Z,172
2017-06-13T03:05:16.066Z,184
2017-06-13T03:06:16.533Z,192
2017-06-13T03:07:10.053Z,200
2017-06-13T03:08:04.148Z,208
2017-06-13T03:08:58.164Z,220
2017-06-13T03:09:52.289Z,224
2017-06-13T03:10:47.320Z,216
2017-06-13T03:11:36.358Z,212
2017-06-13T03:12:30.344Z,204
2017-06-13T03:13:24.541Z,196
2017-06-13T03:14:13.572Z,192
2017-06-13T03:15:08.590Z,188
2017-06-13T03:16:02.603Z,188
2017-06-13T03:16:56.534Z,204
2017-06-13T03:17:56.538Z,232
2017-06-13T03:18:56.686Z,276
2017-06-13T03:19:46.015Z,324
2017-06-13T03:20:39.650Z,388
2017-06-13T03:21:40.064Z,468
2017-06-13T03:22:29.058Z,540
2017-06-13T03:23:23.735Z,612
2017-06-13T03:24:18.281Z,676
2017-06-13T03:25:12.864Z,728
2017-06-13T03:26:01.953Z,784
2017-06-13T03:26:55.945Z,836
2017-06-13T03:27:44.977Z,888
2017-06-13T03:28:39.486Z,936
2017-06-13T03:29:33.051Z,992
2017-06-13T03:30:21.119Z,1044
2017-06-13T03:31:16.171Z,1084
2017-06-13T03:32:10.191Z,1100
2017-06-13T03:33:04.295Z,1096
2017-06-13T03:34:04.367Z,1076
2017-06-13T03:34:59.006Z,1040
2017-06-13T03:35:53.345Z,1036
2017-06-13T03:36:41.622Z,1028
2017-06-13T03:37:35.730Z,1024
2017-06-13T03:38:35.590Z,1020
2017-06-13T03:39:24.535Z,1028
2017-06-13T03:40:13.814Z,1108
2017-06-13T03:41:08.906Z,1280
2017-06-13T03:41:57.148Z,1448
2017-06-13T03:42:51.287Z,1632
2017-06-13T03:43:44.730Z,1736
2017-06-13T03:44:38.729Z,1784
2017-06-13T03:45:26.851Z,1884
2017-06-13T03:46:20.841Z,1988
2017-06-13T03:47:09.928Z,1984
2017-06-13T03:47:58.954Z,1908
2017-06-13T03:48:58.972Z,1944
2017-06-13T03:49:59.034Z,2036
2017-06-13T03:50:53.689Z,2176
2017-06-13T03:51:42.126Z,2248
2017-06-13T03:52:36.133Z,2304
2017-06-13T03:53:25.224Z,2388
2017-06-13T03:54:19.278Z,2580
2017-06-13T03:55:20.269Z,2864
2017-06-13T03:56:14.354Z,3044
2017-06-13T03:57:02.579Z,3080
2017-06-13T03:57:56.575Z,3124
2017-06-13T03:58:50.822Z,3220
2017-06-13T03:59:45.469Z,3356
2017-06-13T04:00:45.470Z,3496
2017-06-13T04:01:39.526Z,3728
2017-06-13T04:02:28.569Z,4000
2017-06-13T04:03:18.064Z,4264
2017-06-13T04:04:12.677Z,4552
2017-06-13T04:05:13.696Z,4848
2017-06-13T04:06:08.757Z,5152
2017-06-13T04:07:08.838Z,5492
2017-06-13T04:08:08.827Z,5784
2017-06-13T04:09:08.861Z,5956
2017-06-13T04:10:09.251Z,5968
2017-06-13T04:11:08.939Z,5920
2017-06-13T04:12:09.240Z,5952
2017-06-13T04:13:09.021Z,6156
2017-06-13T04:14:09.046Z,6524
2017-06-13T04:15:09.074Z,6860
2017-06-13T04:16:09.120Z,7108
2017-06-13T04:17:09.175Z,7036
2017-06-13T04:18:09.226Z,6876
2017-06-13T04:19:09.246Z,6792
2017-06-13T04:20:09.420Z,6768
2017-06-13T04:21:09.318Z,6828
2017-06-13T04:22:09.348Z,6768
2017-06-13T04:23:03.365Z,6880
2017-06-13T04:23:51.856Z,7204
2017-06-13T04:24:40.441Z,7652
2017-06-13T04:25:28.554Z,7864
2017-06-13T04:26:17.524Z,8164
2017-06-13T04:27:05.895Z,8516
2017-06-13T04:28:05.652Z,9040
2017-06-13T04:28:59.664Z,9688
2017-06-13T04:30:00.727Z,11240
2017-06-13T04:30:54.765Z,12072
2017-06-13T04:31:49.804Z,12464
2017-06-13T04:32:43.860Z,12024
2017-06-13T04:33:38.841Z,12168
2017-06-13T04:34:26.951Z,11868
2017-06-13T04:35:20.977Z,11416
2017-06-13T04:36:10.042Z,11536
2017-06-13T04:36:58.083Z,10052
2017-06-13T04:37:52.663Z,10768
2017-06-13T04:38:46.378Z,11436
2017-06-13T04:39:40.232Z,12384
2017-06-13T04:40:28.439Z,12772
2017-06-13T04:41:17.645Z,12772
2017-06-13T04:42:06.800Z,13184
2017-06-13T04:42:54.940Z,13156
2017-06-13T04:43:48.426Z,14336
2017-06-13T04:44:37.470Z,14688
2017-06-13T04:45:37.531Z,14624
2017-06-13T04:46:32.564Z,14528
2017-06-13T04:47:27.621Z,14496
2017-06-13T04:48:16.704Z,14560
2017-06-13T04:49:11.640Z,14848
2017-06-13T04:50:11.807Z,15904
2017-06-13T04:51:06.778Z,16544
2017-06-13T04:51:55.819Z,16480
2017-06-13T04:52:44.864Z,16416
2017-06-13T04:53:39.905Z,16064
2017-06-13T04:54:34.968Z,16064
2017-06-13T04:55:29.023Z,16480
2017-06-13T04:56:17.118Z,17504
2017-06-13T04:57:12.142Z,18624
2017-06-13T04:58:12.499Z,18304
2017-06-13T04:59:12.666Z,17760
2017-06-13T05:00:06.232Z,17344
2017-06-13T05:01:01.256Z,17280
2017-06-13T05:02:01.336Z,17984
2017-06-13T05:02:50.930Z,18624
2017-06-13T05:03:50.456Z,19232
2017-06-13T05:04:39.605Z,19232
2017-06-13T05:05:33.908Z,19264
2017-06-13T05:06:22.569Z,19392
2017-06-13T05:07:17.845Z,19904
2017-06-13T05:08:07.119Z,20736
2017-06-13T05:09:01.672Z,21696
2017-06-13T05:10:01.929Z,22208
2017-06-13T05:10:51.440Z,21984
2017-06-13T05:11:39.802Z,21568
2017-06-13T05:12:34.216Z,21536
2017-06-13T05:13:33.907Z,21856
2017-06-13T05:14:23.322Z,22624
2017-06-13T05:15:17.022Z,23648
2017-06-13T05:16:11.067Z,24128
2017-06-13T05:17:06.119Z,24832
2017-06-13T05:17:55.701Z,24640
2017-06-13T05:18:50.773Z,24032
2017-06-13T05:19:44.259Z,23968
2017-06-13T05:20:38.748Z,24512
2017-06-13T05:21:27.369Z,24832
2017-06-13T05:22:21.424Z,24736
2017-06-13T05:23:16.452Z,25664
2017-06-13T05:24:10.628Z,26016
2017-06-13T05:25:04.664Z,26624
2017-06-13T05:25:59.714Z,27232
2017-06-13T05:26:59.655Z,28544
2017-06-13T05:27:54.445Z,29408
2017-06-13T05:28:47.988Z,30016
2017-06-13T05:29:48.213Z,28896
2017-06-13T05:30:42.833Z,27552
2017-06-13T05:31:32.288Z,27776
2017-06-13T05:32:20.998Z,28032
2017-06-13T05:33:09.038Z,27936
2017-06-13T05:34:04.107Z,27776
2017-06-13T05:34:59.074Z,28768
2017-06-13T05:36:00.229Z,30656
2017-06-13T05:36:49.241Z,30624
2017-06-13T05:37:37.671Z,32320
2017-06-13T05:38:37.629Z,18560
2017-06-13T05:39:26.388Z,32576
2017-06-13T05:40:15.397Z,33696
2017-06-13T05:41:09.469Z,33056
2017-06-13T05:42:09.517Z,32928
2017-06-13T05:42:58.683Z,33344
2017-06-13T05:43:53.631Z,33504
2017-06-13T05:44:47.853Z,33984
2017-06-13T05:45:35.719Z,35776
2017-06-13T05:46:24.764Z,38208
2017-06-13T05:47:20.163Z,38880
2017-06-13T05:48:08.853Z,38048
2017-06-13T05:49:04.369Z,33920
2017-06-13T05:49:58.052Z,15404
2017-06-13T05:50:58.097Z,16416
2017-06-13T05:51:53.095Z,34880
2017-06-13T05:52:54.698Z,35872
2017-06-13T05:53:42.192Z,32352
2017-06-13T05:54:37.724Z,14824
2017-06-13T05:55:26.576Z,41760
2017-06-13T05:56:20.372Z,43328
2017-06-13T05:57:20.364Z,40960
2017-06-13T05:58:09.915Z,23904
2017-06-13T05:59:03.486Z,31680
2017-06-13T05:59:58.515Z,38848
2017-06-13T06:00:54.086Z,31424
2017-06-13T06:01:48.319Z,23584
2017-06-13T06:02:48.488Z,19360
2017-06-13T06:03:37.231Z,16432
2017-06-13T06:04:26.162Z,14836
2017-06-13T06:05:20.883Z,21344
2017-06-13T06:06:21.660Z,22304
2017-06-13T06:07:16.037Z,19008
2017-06-13T06:08:04.989Z,45664
2017-06-13T06:09:05.192Z,48704
2017-06-13T06:09:59.320Z,46176
2017-06-13T06:10:53.388Z,21184
2017-06-13T06:11:42.230Z,18848
2017-06-13T06:12:37.263Z,21632
2017-06-13T06:13:32.747Z,26656
2017-06-13T06:14:27.363Z,41888
2017-06-13T06:15:16.777Z,31840
2017-06-13T06:16:16.762Z,21184
2017-06-13T06:17:16.967Z,42688
2017-06-13T06:18:05.944Z,42528
2017-06-13T06:18:59.663Z,36064
2017-06-13T06:20:00.164Z,13676
2017-06-13T06:20:54.724Z,19616
2017-06-13T06:21:49.784Z,12872
2017-06-13T06:22:43.853Z,46912
2017-06-13T06:23:44.289Z,33824
2017-06-13T06:24:38.315Z,28160
2017-06-13T06:25:32.444Z,38752
2017-06-13T06:26:32.509Z,42304
2017-06-13T06:27:32.500Z,45632
2017-06-13T06:28:21.613Z,45792
2017-06-13T06:29:10.619Z,39456
2017-06-13T06:30:05.673Z,55616
2017-06-13T06:30:53.715Z,54912
2017-06-13T06:31:41.782Z,53632
2017-06-13T06:32:35.882Z,20192
2017-06-13T06:33:35.999Z,53824
2017-06-13T06:34:30.903Z,49920
2017-06-13T06:35:25.004Z,54464
2017-06-13T06:36:19.085Z,55232
2017-06-13T06:37:13.083Z,57056
2017-06-13T06:38:08.142Z,55552
2017-06-13T06:39:02.263Z,55648
2017-06-13T06:39:57.302Z,55872
2017-06-13T06:40:52.333Z,57344
2017-06-13T06:41:52.389Z,63296
2017-06-13T06:42:41.477Z,66624
2017-06-13T06:43:30.532Z,64896
2017-06-13T06:44:24.615Z,18208
2017-06-13T06:45:19.645Z,63168
2017-06-13T06:46:07.735Z,58720
2017-06-13T06:47:01.729Z,56064
2017-06-13T06:47:55.851Z,57632
2017-06-13T06:48:49.832Z,49248
2017-06-13T06:49:44.980Z,19968
2017-06-13T06:50:45.938Z,19968
2017-06-13T06:51:40.006Z,61088
2017-06-13T06:52:29.064Z,65408
2017-06-13T06:53:24.159Z,23584
2017-06-13T06:54:24.246Z,35264
2017-06-13T06:55:18.264Z,24288
2017-06-13T06:56:12.283Z,58560
2017-06-13T06:57:13.374Z,29344
2017-06-13T06:58:02.445Z,29504
2017-06-13T06:58:57.500Z,68160
2017-06-13T06:59:46.499Z,71616
2017-06-13T07:00:40.563Z,58720
2017-06-13T07:01:35.652Z,65024
2017-06-13T07:02:24.694Z,56704
2017-06-13T07:03:13.780Z,32160
2017-06-13T07:04:01.776Z,34944
2017-06-13T07:05:01.873Z,48288
2017-06-13T07:05:56.028Z,26848
2017-06-13T07:06:50.962Z,51872
2017-06-13T07:07:44.993Z,19168
2017-06-13T07:08:33.075Z,23456
2017-06-13T07:09:28.148Z,61408
2017-06-13T07:10:28.162Z,60320
2017-06-13T07:11:22.313Z,25984
2017-06-13T07:12:16.276Z,70528
2017-06-13T07:13:10.345Z,69920
2017-06-13T07:13:59.399Z,25120
2017-06-13T07:14:48.493Z,24096
2017-06-13T07:15:42.546Z,25184
2017-06-13T07:16:37.579Z,81472
2017-06-13T07:17:32.619Z,26912
2017-06-13T07:18:26.702Z,93280
2017-06-13T07:19:20.786Z,89792
2017-06-13T07:20:14.860Z,26848
2017-06-13T07:21:14.864Z,25760
2017-06-13T07:22:02.951Z,41216
2017-06-13T07:22:58.281Z,72000
2017-06-13T07:23:52.049Z,64480
2017-06-13T07:24:52.133Z,36864
2017-06-13T07:25:46.172Z,56992
2017-06-13T07:26:41.215Z,58272
2017-06-13T07:27:41.243Z,79808
2017-06-13T07:28:30.359Z,77056
2017-06-13T07:29:19.383Z,72256
2017-06-13T07:30:13.453Z,69696
2017-06-13T07:31:07.473Z,73792
2017-06-13T07:32:01.534Z,65440
2017-06-13T07:33:01.626Z,33504
2017-06-13T07:33:56.670Z,58528
2017-06-13T07:34:45.747Z,68256
2017-06-13T07:35:33.776Z,45728
2017-06-13T07:36:33.836Z,60512
2017-06-13T07:37:28.870Z,27424
2017-06-13T07:38:24.129Z,22816
2017-06-13T07:39:18.991Z,24064
2017-06-13T07:40:14.014Z,22848
2017-06-13T07:41:03.144Z,21152
2017-06-13T07:41:52.167Z,21312
2017-06-13T07:42:47.267Z,22496
2017-06-13T07:43:42.361Z,25824
2017-06-13T07:44:36.374Z,72800
2017-06-13T07:45:25.378Z,30208
2017-06-13T07:46:26.454Z,24416
2017-06-13T07:47:15.490Z,26080
2017-06-13T07:48:09.573Z,24928
2017-06-13T07:49:04.671Z,27008
2017-06-13T07:49:53.641Z,24128
2017-06-13T07:50:42.721Z,24512
2017-06-13T07:51:36.770Z,85760
2017-06-13T07:52:31.868Z,38528
2017-06-13T07:53:25.947Z,95520
2017-06-13T07:54:25.988Z,77344
2017-06-13T07:55:15.000Z,94400
2017-06-13T07:56:09.070Z,30976
2017-06-13T07:56:58.104Z,23584
2017-06-13T07:57:52.157Z,19488
2017-06-13T07:58:41.253Z,16800
2017-06-13T07:59:36.330Z,13844
2017-06-13T08:00:36.336Z,11884
2017-06-13T08:01:31.457Z,11276
2017-06-13T08:02:32.418Z,11296
2017-06-13T08:03:21.513Z,11848
2017-06-13T08:04:15.905Z,12480
2017-06-13T08:05:09.547Z,13040
2017-06-13T08:06:03.610Z,13412
2017-06-13T08:06:57.596Z,13500
2017-06-13T08:07:51.618Z,13956
2017-06-13T08:08:40.759Z,14452
2017-06-13T08:09:35.803Z,15244
2017-06-13T08:10:30.018Z,15724
2017-06-13T08:11:18.933Z,16416
2017-06-13T08:12:12.998Z,17504
2017-06-13T08:13:02.039Z,18848
2017-06-13T08:13:56.177Z,20736
2017-06-13T08:14:50.184Z,22336
2017-06-13T08:15:44.283Z,23360
2017-06-13T08:16:43.976Z,23808
2017-06-13T08:17:33.273Z,23712
2017-06-13T08:18:27.361Z,23584
2017-06-13T08:19:22.280Z,24096
2017-06-13T08:20:17.306Z,24960
2017-06-13T08:21:11.506Z,26784
2017-06-13T08:22:06.300Z,29408
2017-06-13T08:23:01.484Z,34368
2017-06-13T08:23:56.633Z,31680
2017-06-13T08:24:50.747Z,37376
2017-06-13T08:25:44.774Z,78656
2017-06-13T08:26:38.810Z,86944
2017-06-13T08:27:32.853Z,86016
2017-06-13T08:28:26.974Z,55168
2017-06-13T08:29:15.982Z,53280
2017-06-13T08:30:10.023Z,44352
2017-06-13T08:31:04.022Z,43616
2017-06-13T08:31:58.155Z,47968
2017-06-13T08:32:52.148Z,45120
2017-06-13T08:33:41.240Z,48224
2017-06-13T08:34:30.280Z,54560
2017-06-13T08:35:30.353Z,44544
2017-06-13T08:36:25.410Z,40928
2017-06-13T08:37:19.448Z,29760
2017-06-13T08:38:13.514Z,25664
2017-06-13T08:39:08.563Z,23392
2017-06-13T08:40:02.553Z,22528
2017-06-13T08:40:56.665Z,22496
2017-06-13T08:41:45.767Z,22592
2017-06-13T08:42:39.751Z,23424
2017-06-13T08:43:33.810Z,23520
2017-06-13T08:44:22.937Z,23200
2017-06-13T08:45:16.932Z,22784
2017-06-13T08:46:16.886Z,22432
2017-06-13T08:47:06.029Z,22528
2017-06-13T08:47:54.069Z,22688
2017-06-13T08:48:48.227Z,23104
2017-06-13T08:49:43.233Z,23488
2017-06-13T08:50:37.191Z,23904
2017-06-13T08:51:32.215Z,24384
2017-06-13T08:52:21.237Z,25440
2017-06-13T08:53:10.397Z,26752
2017-06-13T08:54:04.332Z,27648
2017-06-13T08:54:53.515Z,28480
2017-06-13T08:55:42.317Z,28960
2017-06-13T08:56:36.539Z,29344
2017-06-13T08:57:36.617Z,28960
2017-06-13T08:58:30.769Z,27488
2017-06-13T08:59:24.779Z,20416
2017-06-13T09:00:18.758Z,24224
2017-06-13T09:01:06.828Z,24192
2017-06-13T09:01:54.562Z,25248
2017-06-13T09:02:54.795Z,27296
2017-06-13T09:03:44.018Z,29632
2017-06-13T09:04:43.741Z,32224
2017-06-13T09:05:38.816Z,34592
2017-06-13T09:06:27.864Z,36864
2017-06-13T09:07:22.260Z,38432
2017-06-13T09:08:17.317Z,40416
2017-06-13T09:09:05.381Z,41312
2017-06-13T09:10:00.413Z,43136
2017-06-13T09:11:01.455Z,40160
2017-06-13T09:11:55.549Z,40352
2017-06-13T09:12:49.541Z,41600
2017-06-13T09:13:44.601Z,42272
2017-06-13T09:14:38.821Z,43296
2017-06-13T09:15:26.740Z,45440
2017-06-13T09:16:21.770Z,50176
2017-06-13T09:17:16.800Z,31168
2017-06-13T09:18:05.795Z,29216
2017-06-13T09:18:54.922Z,28192
2017-06-13T09:19:43.957Z,27648
2017-06-13T09:20:37.976Z,27104
2017-06-13T09:21:32.043Z,27488
2017-06-13T09:22:21.093Z,28704
2017-06-13T09:23:15.153Z,31584
2017-06-13T09:24:10.198Z,34976
2017-06-13T09:24:59.233Z,36800
2017-06-13T09:25:54.299Z,37440
2017-06-13T09:26:43.421Z,37760
2017-06-13T09:27:32.388Z,37792
2017-06-13T09:28:26.498Z,38080
2017-06-13T09:29:26.490Z,38560
2017-06-13T09:30:15.655Z,40160
2017-06-13T09:31:15.634Z,40640
2017-06-13T09:32:10.650Z,41376
2017-06-13T09:32:58.755Z,41120
2017-06-13T09:33:58.774Z,40704
2017-06-13T09:34:53.873Z,40160
2017-06-13T09:35:47.912Z,39840
2017-06-13T09:36:42.914Z,39392
2017-06-13T09:37:43.014Z,39008
2017-06-13T09:38:32.088Z,39040
2017-06-13T09:39:26.167Z,39424
2017-06-13T09:40:20.194Z,40224
2017-06-13T09:41:09.257Z,40800
2017-06-13T09:42:04.217Z,41408
2017-06-13T09:42:52.334Z,42112
2017-06-13T09:43:46.385Z,43488
2017-06-13T09:44:35.401Z,44832
2017-06-13T09:45:30.489Z,51232
2017-06-13T09:46:24.559Z,49184
2017-06-13T09:47:19.597Z,51456
2017-06-13T09:48:14.717Z,54720
2017-06-13T09:49:09.707Z,69632
2017-06-13T09:50:03.767Z,72992
2017-06-13T09:50:58.801Z,59104
2017-06-13T09:51:59.860Z,60832
2017-06-13T09:52:54.927Z,60224
2017-06-13T09:53:48.943Z,61824
2017-06-13T09:54:43.088Z,28256
2017-06-13T09:55:31.079Z,47008
2017-06-13T09:56:26.160Z,61120
2017-06-13T09:57:21.206Z,61920
2017-06-13T09:58:16.256Z,56160
2017-06-13T09:59:10.328Z,57696
2017-06-13T10:00:05.371Z,26944
2017-06-13T10:00:59.437Z,96416
2017-06-13T10:01:53.461Z,63904
2017-06-13T10:02:42.979Z,53408
2017-06-13T10:03:36.556Z,44576
2017-06-13T10:04:25.678Z,37024
2017-06-13T10:05:19.715Z,32320
2017-06-13T10:06:14.885Z,29312
2017-06-13T10:07:09.838Z,26848
2017-06-13T10:08:10.921Z,23488
2017-06-13T10:08:59.920Z,20896
2017-06-13T10:09:55.084Z,18816
2017-06-13T10:10:50.030Z,12112
2017-06-13T10:11:45.085Z,17280
2017-06-13T10:12:40.185Z,19360
2017-06-13T10:13:29.222Z,21920
2017-06-13T10:14:29.281Z,26496
2017-06-13T10:15:23.346Z,29632
2017-06-13T10:16:17.436Z,32160
2017-06-13T10:17:11.475Z,35712
2017-06-13T10:18:05.518Z,36672
2017-06-13T10:18:59.532Z,37632
2017-06-13T10:19:59.607Z,44096
2017-06-13T10:20:54.659Z,112832
2017-06-13T10:21:48.745Z,97760
2017-06-13T10:22:37.744Z,52128
2017-06-13T10:23:31.812Z,53216
2017-06-13T10:24:25.995Z,48320
2017-06-13T10:25:25.950Z,32448
2017-06-13T10:26:20.935Z,38464
2017-06-13T10:27:15.066Z,33792
2017-06-13T10:28:10.083Z,29632
2017-06-13T10:29:10.162Z,25408
2017-06-13T10:30:04.262Z,22336
2017-06-13T10:30:58.307Z,19424
2017-06-13T10:31:52.339Z,17216
2017-06-13T10:32:41.438Z,15292
2017-06-13T10:33:42.439Z,13000
2017-06-13T10:34:36.471Z,11428
2017-06-13T10:35:31.688Z,10364
2017-06-13T10:36:25.558Z,9860
2017-06-13T10:37:20.665Z,9924
2017-06-13T10:38:20.670Z,10664
2017-06-13T10:39:20.756Z,12040
2017-06-13T10:40:14.736Z,13432
2017-06-13T10:41:08.870Z,14928
2017-06-13T10:42:08.919Z,16736
2017-06-13T10:42:58.000Z,18688
2017-06-13T10:43:52.007Z,21216
2017-06-13T10:44:47.022Z,24704
2017-06-13T10:45:47.099Z,28704
2017-06-13T10:46:47.178Z,31808
2017-06-13T10:47:41.245Z,34080
2017-06-13T10:48:41.242Z,36160
2017-06-13T10:49:36.241Z,37728
2017-06-13T10:50:30.369Z,39840
2017-06-13T10:51:19.429Z,42816
2017-06-13T10:52:19.526Z,44800
2017-06-13T10:53:08.532Z,48160
2017-06-13T10:53:57.589Z,45632
2017-06-13T10:54:46.639Z,47456
2017-06-13T10:55:52.669Z,50080
2017-06-13T10:56:47.747Z,59840
2017-06-13T10:57:36.785Z,53376
2017-06-13T10:58:25.830Z,49568
2017-06-13T10:59:19.846Z,43872
2017-06-13T11:00:19.890Z,35136
2017-06-13T11:01:14.970Z,29440
2017-06-13T11:02:10.062Z,24800
2017-06-13T11:03:04.118Z,22016
2017-06-13T11:03:58.140Z,20608
2017-06-13T11:04:52.232Z,19968
2017-06-13T11:05:52.230Z,19392
2017-06-13T11:06:52.259Z,19008
2017-06-13T11:07:46.336Z,18880
2017-06-13T11:08:34.469Z,14548
2017-06-13T11:09:29.467Z,13488
2017-06-13T11:10:23.502Z,20608
2017-06-13T11:11:17.581Z,21792
2017-06-13T11:12:12.581Z,23200
2017-06-13T11:13:06.620Z,24704
2017-06-13T11:13:55.762Z,25696
2017-06-13T11:14:50.815Z,26752
2017-06-13T11:15:45.809Z,27680
2017-06-13T11:16:34.868Z,28608
2017-06-13T11:17:34.913Z,29344
2017-06-13T11:18:29.966Z,30304
2017-06-13T11:19:24.017Z,31936
2017-06-13T11:20:13.103Z,33856
2017-06-13T11:21:13.119Z,36736
2017-06-13T11:22:07.147Z,39456
2017-06-13T11:23:07.156Z,42464
2017-06-13T11:23:56.356Z,53408
2017-06-13T11:24:45.428Z,44096
2017-06-13T11:25:40.360Z,44864
2017-06-13T11:26:35.487Z,51200
2017-06-13T11:27:29.480Z,39904
2017-06-13T11:28:23.523Z,37664
2017-06-13T11:29:17.577Z,36960
2017-06-13T11:30:05.649Z,35936
2017-06-13T11:31:00.724Z,34880
2017-06-13T11:31:55.714Z,33952
2017-06-13T11:32:44.787Z,33504
2017-06-13T11:33:39.864Z,33760
2017-06-13T11:34:33.912Z,34176
2017-06-13T11:35:22.978Z,34976
2017-06-13T11:36:17.984Z,36000
2017-06-13T11:37:18.038Z,37408
2017-06-13T11:38:07.153Z,38336
2017-06-13T11:38:55.135Z,38976
2017-06-13T11:39:44.263Z,39392
2017-06-13T11:40:32.372Z,39840
2017-06-13T11:41:27.333Z,40160
2017-06-13T11:42:21.371Z,40608
2017-06-13T11:43:15.432Z,41760
2017-06-13T11:44:15.461Z,40672
2017-06-13T11:45:10.571Z,38432
2017-06-13T11:45:59.639Z,37344
2017-06-13T11:46:59.649Z,34464
2017-06-13T11:47:53.704Z,32000
2017-06-13T11:48:53.794Z,29248
2017-06-13T11:49:47.818Z,27488
2017-06-13T11:50:48.837Z,26304
2017-06-13T11:51:43.991Z,26144
2017-06-13T11:52:32.992Z,26688
2017-06-13T11:53:33.019Z,27872
2017-06-13T11:54:28.095Z,29440
2017-06-13T11:55:23.130Z,31776
2017-06-13T11:56:24.219Z,34720
2017-06-13T11:57:19.304Z,37248
2017-06-13T11:58:14.288Z,39232
2017-06-13T11:59:08.325Z,41056
2017-06-13T12:00:02.390Z,41856
2017-06-13T12:00:56.406Z,43456
2017-06-13T12:01:50.495Z,43360
2017-06-13T12:02:51.595Z,42784